createdAt,value
2022-12-14T00:02:04.560Z,22.65
2022-12-14T00:04:32.911Z,22.58
2022-12-14T00:07:02.772Z,21.35
2022-12-14T00:09:30.945Z,21.55
2022-12-14T00:11:59.143Z,20.58
2022-12-14T00:14:27.569Z,20.88
2022-12-14T00:16:55.706Z,21.60
2022-12-14T00:19:23.883Z,22.08
2022-12-14T00:21:52.769Z,20.60
2022-12-14T00:24:23.007Z,19.45
2022-12-14T00:26:51.158Z,20.15
2022-12-14T00:29:19.548Z,20.13
2022-12-14T00:31:48.861Z,20.20
2022-12-14T00:34:17.713Z,20.42
2022-12-14T00:36:46.106Z,20.92
2022-12-14T00:39:14.588Z,19.67
2022-12-14T00:41:44.496Z,19.88
2022-12-14T00:44:12.796Z,19.38
2022-12-14T00:46:41.368Z,19.00
2022-12-14T00:49:09.967Z,19.83
2022-12-14T00:51:38.855Z,20.25
2022-12-14T00:54:07.487Z,20.30
2022-12-14T00:56:35.702Z,19.75
2022-12-14T00:59:05.484Z,18.88
2022-12-14T01:01:34.268Z,19.50
2022-12-14T01:04:16.471Z,19.70
2022-12-14T01:06:45.350Z,19.70
2022-12-14T01:09:14.242Z,19.85
2022-12-14T01:11:42.656Z,20.75
2022-12-14T01:14:14.655Z,20.85
2022-12-14T01:16:43.088Z,19.88
2022-12-14T01:19:12.601Z,20.45
2022-12-14T01:21:41.106Z,20.25
2022-12-14T01:24:09.858Z,21.42
2022-12-14T01:26:39.685Z,20.70
2022-12-14T01:29:09.120Z,20.50
2022-12-14T01:31:39.858Z,20.25
2022-12-14T01:34:08.753Z,19.73
2022-12-14T01:36:38.443Z,21.15
2022-12-14T01:39:09.621Z,20.48
2022-12-14T01:41:39.978Z,20.50
2022-12-14T01:44:41.313Z,20.17
2022-12-14T01:47:17.541Z,19.95
2022-12-14T01:49:49.068Z,20.45
2022-12-14T01:52:23.225Z,20.63
2022-12-14T01:54:55.644Z,19.67
2022-12-14T01:57:28.540Z,20.98
2022-12-14T02:00:02.292Z,20.83
2022-12-14T02:02:38.163Z,19.80
2022-12-14T02:05:10.548Z,21.42
2022-12-14T02:07:40.307Z,20.90
2022-12-14T02:10:10.227Z,20.42
2022-12-14T02:12:41.920Z,19.80
2022-12-14T02:15:11.740Z,22.20
2022-12-14T02:17:44.510Z,21.05
2022-12-14T02:20:13.974Z,21.50
2022-12-14T02:23:27.766Z,21.27
2022-12-14T02:26:28.681Z,20.70
2022-12-14T02:29:24.965Z,21.08
2022-12-14T02:32:03.786Z,21.10
2022-12-14T02:34:40.441Z,20.70
2022-12-14T02:37:17.922Z,20.08
2022-12-14T02:39:57.318Z,21.30
2022-12-14T02:42:33.521Z,21.10
2022-12-14T02:45:09.801Z,20.17
2022-12-14T02:47:42.166Z,21.55
2022-12-14T02:50:15.933Z,20.63
2022-12-14T02:52:54.354Z,21.20
2022-12-14T02:55:27.674Z,20.95
2022-12-14T02:58:02.390Z,20.85
2022-12-14T03:00:34.968Z,20.58
2022-12-14T03:03:05.634Z,20.90
2022-12-14T03:05:34.628Z,20.42
2022-12-14T03:08:05.004Z,20.85
2022-12-14T03:10:40.185Z,21.75
2022-12-14T03:13:16.761Z,21.23
2022-12-14T03:15:51.925Z,20.08
2022-12-14T03:18:24.256Z,21.20
2022-12-14T03:20:55.107Z,20.17
2022-12-14T03:23:26.906Z,20.40
2022-12-14T03:26:01.004Z,20.48
2022-12-14T03:28:35.291Z,20.58
2022-12-14T03:31:08.046Z,21.20
2022-12-14T03:33:39.244Z,21.63
2022-12-14T03:36:15.462Z,20.92
2022-12-14T03:38:46.308Z,20.30
2022-12-14T03:41:22.520Z,20.00
2022-12-14T03:44:06.688Z,20.98
2022-12-14T03:46:45.956Z,20.80
2022-12-14T03:49:21.686Z,20.33
2022-12-14T03:51:59.360Z,21.08
2022-12-14T03:54:37.682Z,20.85
2022-12-14T03:57:12.636Z,20.38
2022-12-14T03:59:50.583Z,21.27
2022-12-14T04:02:26.678Z,20.75
2022-12-14T04:04:59.248Z,19.58
2022-12-14T04:07:37.322Z,19.42
2022-12-14T04:10:33.253Z,19.45
2022-12-14T04:13:24.373Z,20.80
2022-12-14T04:16:13.975Z,20.70
2022-12-14T04:19:00.468Z,20.15
2022-12-14T04:21:37.963Z,19.70
2022-12-14T04:24:31.274Z,20.88
2022-12-14T04:27:08.309Z,20.30
2022-12-14T04:29:59.370Z,20.58
2022-12-14T04:32:32.917Z,19.88
2022-12-14T04:37:38.461Z,19.10
2022-12-14T04:40:10.646Z,20.35
2022-12-14T04:42:50.849Z,19.63
2022-12-14T04:45:24.749Z,18.85
2022-12-14T04:48:01.660Z,19.90
2022-12-14T04:50:35.940Z,20.48
2022-12-14T04:53:12.373Z,19.55
2022-12-14T04:55:44.493Z,19.33
2022-12-14T04:58:17.937Z,19.75
2022-12-14T05:01:17.559Z,21.30
2022-12-14T05:03:52.570Z,21.50
2022-12-14T05:06:27.537Z,20.55
2022-12-14T05:09:09.512Z,19.60
2022-12-14T05:11:53.749Z,19.85
2022-12-14T05:14:28.663Z,19.88
2022-12-14T05:16:57.675Z,19.45
2022-12-14T05:19:26.762Z,20.38
2022-12-14T05:21:57.144Z,20.83
2022-12-14T05:24:25.313Z,19.65
2022-12-14T05:26:53.498Z,19.73
2022-12-14T05:29:21.875Z,19.85
2022-12-14T05:31:50.169Z,19.52
2022-12-14T05:34:18.786Z,20.73
2022-12-14T05:36:47.299Z,20.48
2022-12-14T05:39:17.603Z,20.20
2022-12-14T05:41:46.129Z,19.52
2022-12-14T05:44:15.021Z,19.25
2022-12-14T05:46:43.245Z,19.88
2022-12-14T05:49:11.540Z,19.73
2022-12-14T05:51:40.497Z,19.77
2022-12-14T05:54:08.885Z,20.67
2022-12-14T05:56:38.489Z,21.33
2022-12-14T05:59:07.073Z,20.13
2022-12-14T06:01:35.301Z,20.25
2022-12-14T06:04:03.486Z,20.15
2022-12-14T06:06:34.183Z,19.75
2022-12-14T06:09:02.379Z,19.50
2022-12-14T06:11:30.617Z,19.50
2022-12-14T06:14:00.627Z,19.38
2022-12-14T06:16:28.999Z,20.27
2022-12-14T06:18:58.643Z,22.73
2022-12-14T06:21:30.463Z,22.77
2022-12-14T06:23:59.690Z,22.27
2022-12-14T06:26:29.649Z,21.88
2022-12-14T06:29:00.316Z,22.10
2022-12-14T06:31:30.447Z,21.63
2022-12-14T06:34:00.361Z,22.55
2022-12-14T06:36:30.975Z,22.35
2022-12-14T06:39:02.769Z,23.30
2022-12-14T06:41:31.371Z,23.55
2022-12-14T06:44:05.598Z,22.25
2022-12-14T06:46:34.881Z,22.42
2022-12-14T06:49:03.560Z,23.95
2022-12-14T06:51:32.176Z,21.55
2022-12-14T06:54:00.607Z,22.20
2022-12-14T06:56:29.318Z,23.65
2022-12-14T06:58:58.477Z,23.08
2022-12-14T07:01:29.256Z,23.55
2022-12-14T07:03:59.348Z,23.48
2022-12-14T07:06:29.826Z,22.90
2022-12-14T07:09:00.283Z,23.38
2022-12-14T07:11:29.899Z,22.67
2022-12-14T07:14:00.679Z,22.88
2022-12-14T07:16:30.856Z,24.23
2022-12-14T07:18:59.202Z,22.98
2022-12-14T07:21:27.621Z,23.77
2022-12-14T07:23:56.409Z,22.80
2022-12-14T07:26:27.581Z,25.60
2022-12-14T07:28:56.352Z,24.33
2022-12-14T07:31:28.557Z,22.92
2022-12-14T07:34:01.131Z,24.13
2022-12-14T07:36:30.938Z,24.38
2022-12-14T07:38:59.198Z,22.83
2022-12-14T07:41:30.870Z,23.23
2022-12-14T07:44:00.842Z,22.85
2022-12-14T07:46:32.147Z,23.40
2022-12-14T07:49:03.539Z,23.60
2022-12-14T07:51:33.457Z,24.48
2022-12-14T07:54:02.515Z,24.45
2022-12-14T07:56:32.640Z,23.30
2022-12-14T07:59:01.871Z,22.55
2022-12-14T08:01:31.683Z,23.17
2022-12-14T08:04:05.255Z,23.48
2022-12-14T08:09:02.477Z,23.08
2022-12-14T08:11:30.975Z,22.10
2022-12-14T08:14:00.839Z,22.80
2022-12-14T08:16:29.571Z,21.70
2022-12-14T08:18:59.798Z,22.42
2022-12-14T08:21:30.306Z,22.70
2022-12-14T08:23:59.279Z,23.17
2022-12-14T08:26:34.966Z,23.25
2022-12-14T08:29:04.979Z,23.48
2022-12-14T08:31:34.394Z,23.77
2022-12-14T08:34:03.245Z,23.38
2022-12-14T08:36:35.332Z,23.27
2022-12-14T08:39:05.545Z,25.80
2022-12-14T08:41:34.348Z,25.02
2022-12-14T08:44:04.491Z,22.95
2022-12-14T08:46:35.025Z,21.27
2022-12-14T08:49:03.674Z,22.38
2022-12-14T08:51:33.381Z,22.88
2022-12-14T08:54:01.534Z,23.25
2022-12-14T08:56:30.137Z,22.30
2022-12-14T08:58:58.995Z,21.15
2022-12-14T09:01:33.512Z,21.90
2022-12-14T09:04:07.974Z,23.45
2022-12-14T09:09:15.543Z,23.33
2022-12-14T09:11:44.376Z,23.30
2022-12-14T09:14:13.035Z,22.70
2022-12-14T09:16:41.560Z,20.80
2022-12-14T09:19:09.848Z,24.35
2022-12-14T09:21:40.161Z,22.05
2022-12-14T09:24:10.290Z,22.92
2022-12-14T09:26:38.466Z,23.63
2022-12-14T09:29:07.150Z,22.10
2022-12-14T09:31:35.613Z,22.25
2022-12-14T09:34:04.489Z,22.23
2022-12-14T09:36:33.076Z,22.42
2022-12-14T09:39:03.857Z,21.73
2022-12-14T09:41:46.888Z,21.00
2022-12-14T09:44:27.830Z,20.92
2022-12-14T09:47:03.689Z,21.02
2022-12-14T09:49:34.524Z,21.17
2022-12-14T09:52:04.943Z,21.67
2022-12-14T09:54:38.352Z,22.13
2022-12-14T09:57:22.627Z,20.17
2022-12-14T09:59:53.245Z,20.08
2022-12-14T10:02:31.298Z,20.17
2022-12-14T10:05:12.191Z,20.58
2022-12-14T10:07:50.322Z,19.42
2022-12-14T10:10:26.759Z,19.35
2022-12-14T10:13:04.827Z,19.27
2022-12-14T10:15:41.069Z,19.80
2022-12-14T10:18:57.646Z,20.33
2022-12-14T10:21:17.369Z,20.60
2022-12-14T10:23:56.022Z,20.30
2022-12-14T10:26:37.149Z,21.33
2022-12-14T10:29:11.762Z,21.48
2022-12-14T10:31:49.540Z,20.02
2022-12-14T10:34:21.643Z,20.33
2022-12-14T10:36:54.877Z,20.38
2022-12-14T10:39:29.423Z,20.50
2022-12-14T10:42:05.733Z,20.65
2022-12-14T10:44:41.501Z,19.65
2022-12-14T10:47:15.454Z,19.90
2022-12-14T10:49:51.601Z,19.70
2022-12-14T10:52:23.162Z,19.42
2022-12-14T10:54:55.522Z,20.42
2022-12-14T10:57:27.519Z,19.58
2022-12-14T11:00:08.554Z,18.52
2022-12-14T11:02:41.733Z,20.25
2022-12-14T11:05:24.632Z,18.98
2022-12-14T11:07:53.079Z,19.83
2022-12-14T11:10:23.547Z,20.27
2022-12-14T11:13:05.259Z,19.95
2022-12-14T11:15:36.210Z,18.75
2022-12-14T11:18:08.414Z,19.52
2022-12-14T11:20:36.706Z,19.75
2022-12-14T11:23:22.433Z,19.55
2022-12-14T11:25:52.725Z,19.38
2022-12-14T11:28:36.603Z,19.92
2022-12-14T11:31:08.586Z,19.98
2022-12-14T11:33:40.942Z,20.70
2022-12-14T11:36:10.373Z,20.67
2022-12-14T11:38:38.762Z,20.65
2022-12-14T11:41:11.890Z,19.65
2022-12-14T11:43:41.987Z,19.70
2022-12-14T11:46:10.677Z,21.00
2022-12-14T11:48:47.564Z,20.38
2022-12-14T11:51:16.161Z,19.90
2022-12-14T11:53:44.396Z,21.05
2022-12-14T11:56:16.548Z,20.33
2022-12-14T11:58:53.572Z,20.00
2022-12-14T12:01:27.463Z,20.52
2022-12-14T12:03:58.369Z,19.10
2022-12-14T12:06:28.903Z,19.55
2022-12-14T12:08:59.908Z,19.95
2022-12-14T12:11:30.941Z,20.52
2022-12-14T12:14:02.703Z,21.00
2022-12-14T12:16:33.200Z,20.27
2022-12-14T12:19:12.141Z,19.83
2022-12-14T12:21:42.835Z,19.70
2022-12-14T12:24:18.562Z,19.35
2022-12-14T12:26:51.433Z,19.85
2022-12-14T12:29:26.579Z,19.85
2022-12-14T12:31:59.264Z,19.95
2022-12-14T12:34:32.157Z,19.52
2022-12-14T12:39:58.636Z,19.10
2022-12-14T12:42:37.339Z,20.15
2022-12-14T12:45:16.231Z,19.73
2022-12-14T12:47:51.355Z,19.45
2022-12-14T12:50:30.835Z,19.35
2022-12-14T12:53:04.009Z,19.75
2022-12-14T12:55:35.611Z,20.00
2022-12-14T12:58:10.271Z,18.85
2022-12-14T13:00:42.451Z,18.92
2022-12-14T13:03:19.683Z,19.15
2022-12-14T13:05:49.423Z,19.35
2022-12-14T13:08:25.201Z,18.83
2022-12-14T13:11:24.607Z,18.98
2022-12-14T13:13:48.191Z,18.50
2022-12-14T13:16:26.603Z,18.05
2022-12-14T13:19:19.056Z,18.52
2022-12-14T13:21:54.658Z,18.15
2022-12-14T13:24:25.165Z,18.08
2022-12-14T13:27:18.112Z,18.95
2022-12-14T13:30:04.377Z,19.20
2022-12-14T13:32:54.463Z,18.75
2022-12-14T13:35:38.940Z,18.15
2022-12-14T13:38:33.925Z,19.20
2022-12-14T13:41:17.833Z,18.65
2022-12-14T13:44:01.215Z,18.80
2022-12-14T13:46:30.915Z,17.33
2022-12-14T13:49:06.019Z,17.95
2022-12-14T13:51:38.704Z,17.67
2022-12-14T13:54:09.336Z,17.67
2022-12-14T13:56:40.549Z,18.55
2022-12-14T13:59:27.879Z,17.60
2022-12-14T14:02:00.818Z,17.70
2022-12-14T14:04:31.633Z,18.33
2022-12-14T14:07:33.851Z,17.92
2022-12-14T14:10:05.469Z,17.20
2022-12-14T14:12:39.825Z,17.75
2022-12-14T14:16:18.920Z,18.23
2022-12-14T14:21:30.599Z,18.42
2022-12-14T14:24:01.340Z,17.45
2022-12-14T14:26:32.166Z,18.92
2022-12-14T14:29:19.456Z,18.60
2022-12-14T14:31:51.814Z,18.92
2022-12-14T14:34:26.114Z,18.50
2022-12-14T14:36:56.116Z,20.05
2022-12-14T14:42:26.288Z,19.27
2022-12-14T14:44:57.718Z,19.13
2022-12-14T14:47:29.734Z,20.85
2022-12-14T14:50:01.932Z,21.33
2022-12-14T14:53:02.062Z,21.13
2022-12-14T14:56:05.560Z,19.92
2022-12-14T14:58:36.503Z,21.88
2022-12-14T15:01:25.191Z,27.60
2022-12-14T15:04:02.302Z,28.30
2022-12-14T15:06:33.937Z,24.73
2022-12-14T15:09:13.677Z,23.23
2022-12-14T15:11:46.581Z,21.48
2022-12-14T15:14:35.038Z,21.27
2022-12-14T15:17:15.069Z,32.63
2022-12-14T15:19:49.192Z,33.10
2022-12-14T15:22:20.580Z,31.33
2022-12-14T15:24:53.085Z,27.73
2022-12-14T15:27:30.277Z,30.63
2022-12-14T15:30:07.934Z,30.65
2022-12-14T15:32:37.338Z,27.90
2022-12-14T15:35:08.874Z,26.02
2022-12-14T15:37:43.482Z,24.95
2022-12-14T15:40:16.705Z,22.17
2022-12-14T15:42:49.357Z,22.23
2022-12-14T15:45:21.289Z,22.73
2022-12-14T15:47:50.777Z,22.23
2022-12-14T15:50:25.452Z,22.90
2022-12-14T15:52:56.779Z,21.52
2022-12-14T15:55:34.280Z,21.85
2022-12-14T15:58:09.857Z,21.55
2022-12-14T16:00:42.910Z,20.58
2022-12-14T16:03:23.328Z,21.73
2022-12-14T16:05:52.003Z,22.75
2022-12-14T16:08:20.697Z,23.83
2022-12-14T16:10:52.652Z,25.60
2022-12-14T16:13:26.313Z,25.98
2022-12-14T16:15:57.172Z,25.58
2022-12-14T16:18:26.371Z,25.13
2022-12-14T16:21:00.189Z,26.10
2022-12-14T16:23:32.302Z,27.75
2022-12-14T16:26:22.882Z,26.98
2022-12-14T16:29:06.252Z,27.75
2022-12-14T16:31:35.183Z,27.35
2022-12-14T16:34:09.537Z,26.67
2022-12-14T16:36:38.623Z,25.42
2022-12-14T16:39:15.342Z,28.00
2022-12-14T16:41:55.406Z,27.33
2022-12-14T16:44:35.267Z,26.85
2022-12-14T16:47:29.058Z,25.30
2022-12-14T16:49:59.825Z,25.65
2022-12-14T16:52:30.588Z,24.60
2022-12-14T16:55:13.128Z,27.08
2022-12-14T16:57:52.528Z,26.75
2022-12-14T17:00:23.848Z,27.58
2022-12-14T17:03:00.125Z,26.42
2022-12-14T17:05:33.970Z,26.45
2022-12-14T17:08:02.596Z,27.92
2022-12-14T17:10:32.758Z,28.55
2022-12-14T17:13:04.222Z,30.10
2022-12-14T17:15:34.659Z,29.55
2022-12-14T17:18:05.868Z,28.30
2022-12-14T17:20:37.211Z,28.15
2022-12-14T17:23:10.466Z,27.65
2022-12-14T17:25:42.049Z,28.23
2022-12-14T17:28:22.058Z,29.10
2022-12-14T17:30:51.431Z,29.27
2022-12-14T17:33:19.897Z,31.13
2022-12-14T17:35:48.206Z,30.33
2022-12-14T17:38:18.272Z,29.98
2022-12-14T17:40:48.196Z,31.27
2022-12-14T17:43:25.660Z,30.50
2022-12-14T17:45:54.251Z,29.02
2022-12-14T17:48:22.680Z,30.42
2022-12-14T17:50:51.682Z,30.67
2022-12-14T17:53:23.848Z,30.73
2022-12-14T17:55:52.012Z,30.88
2022-12-14T17:58:20.802Z,30.85
2022-12-14T18:01:03.181Z,30.98
2022-12-14T18:03:36.516Z,30.88
2022-12-14T18:08:34.147Z,30.83
2022-12-14T18:11:11.867Z,30.75
2022-12-14T18:13:42.158Z,32.72
2022-12-14T18:16:14.720Z,33.80
2022-12-14T18:18:43.957Z,33.90
2022-12-14T18:21:18.606Z,35.25
2022-12-14T18:23:47.966Z,36.95
2022-12-14T18:26:21.227Z,36.13
2022-12-14T18:28:50.824Z,34.97
2022-12-14T18:31:25.745Z,33.15
2022-12-14T18:33:55.695Z,32.50
2022-12-14T18:36:24.159Z,32.22
2022-12-14T18:38:53.424Z,33.00
2022-12-14T18:41:24.448Z,34.40
2022-12-14T18:43:54.402Z,35.33
2022-12-14T18:46:25.083Z,38.47
2022-12-14T18:48:53.775Z,39.75
2022-12-14T18:51:26.944Z,38.20
2022-12-14T18:53:56.702Z,37.30
2022-12-14T18:56:28.287Z,32.60
2022-12-14T18:58:56.647Z,63.25
2022-12-14T19:01:27.021Z,46.95
2022-12-14T19:03:55.571Z,39.08
2022-12-14T19:09:15.070Z,34.75
2022-12-14T19:11:43.799Z,36.00
2022-12-14T19:14:12.059Z,35.72
2022-12-14T19:16:41.986Z,34.00
2022-12-14T19:19:10.279Z,32.35
2022-12-14T19:21:38.502Z,30.02
2022-12-14T19:24:08.872Z,31.17
2022-12-14T19:26:39.326Z,30.85
2022-12-14T19:29:07.808Z,32.05
2022-12-14T19:31:36.404Z,32.28
2022-12-14T19:34:06.014Z,27.85
2022-12-14T19:36:34.516Z,25.05
2022-12-14T19:39:03.064Z,25.27
2022-12-14T19:41:31.341Z,25.35
2022-12-14T19:43:59.885Z,26.42
2022-12-14T19:46:28.456Z,28.90
2022-12-14T19:48:57.480Z,27.95
2022-12-14T19:51:27.241Z,26.73
2022-12-14T19:53:56.161Z,26.00
2022-12-14T19:56:24.676Z,26.50
2022-12-14T19:58:56.325Z,31.80
2022-12-14T20:01:24.953Z,33.33
2022-12-14T20:03:53.624Z,32.38
2022-12-14T20:06:21.836Z,31.27
2022-12-14T20:08:51.625Z,31.58
2022-12-14T20:11:20.498Z,31.42
2022-12-14T20:13:53.270Z,30.45
2022-12-14T20:16:25.865Z,30.48
2022-12-14T20:18:55.169Z,28.23
2022-12-14T20:21:23.829Z,29.17
2022-12-14T20:23:53.823Z,27.27
2022-12-14T20:26:23.728Z,33.88
2022-12-14T20:28:54.113Z,32.53
2022-12-14T20:31:23.595Z,36.38
2022-12-14T20:33:52.036Z,32.40
2022-12-14T20:36:22.237Z,27.27
2022-12-14T20:38:57.916Z,28.20
2022-12-14T20:41:26.810Z,28.50
2022-12-14T20:43:55.192Z,29.65
2022-12-14T20:46:27.634Z,29.70
2022-12-14T20:48:56.634Z,32.03
2022-12-14T20:51:25.119Z,30.70
2022-12-14T20:53:53.527Z,31.90
2022-12-14T20:56:23.322Z,30.50
2022-12-14T20:58:51.905Z,32.10
2022-12-14T21:01:21.490Z,33.15
2022-12-14T21:03:51.294Z,35.10
2022-12-14T21:06:22.268Z,33.03
2022-12-14T21:09:05.296Z,32.90
2022-12-14T21:11:55.557Z,31.80
2022-12-14T21:14:26.742Z,32.22
2022-12-14T21:16:55.296Z,33.13
2022-12-14T21:19:24.125Z,32.53
2022-12-14T21:21:54.014Z,32.80
2022-12-14T21:27:17.215Z,32.53
2022-12-14T21:29:45.689Z,35.25
2022-12-14T21:32:14.430Z,31.90
2022-12-14T21:34:43.559Z,29.80
2022-12-14T21:37:12.514Z,31.77
2022-12-14T21:39:41.381Z,31.60
2022-12-14T21:42:13.329Z,30.95
2022-12-14T21:44:45.107Z,29.42
2022-12-14T21:47:15.693Z,27.17
2022-12-14T21:49:46.124Z,28.13
2022-12-14T21:52:17.078Z,28.30
2022-12-14T21:54:45.612Z,27.55
2022-12-14T21:57:33.389Z,28.00
2022-12-14T22:00:03.396Z,26.05
2022-12-14T22:02:31.768Z,26.10
2022-12-14T22:05:00.331Z,27.55
2022-12-14T22:07:32.303Z,26.45
2022-12-14T22:10:00.659Z,27.65
2022-12-14T22:12:29.722Z,26.85
2022-12-14T22:14:58.019Z,26.83
2022-12-14T22:17:27.699Z,26.75
2022-12-14T22:19:56.298Z,30.75
2022-12-14T22:22:24.566Z,31.25
2022-12-14T22:24:52.742Z,29.52
2022-12-14T22:27:21.890Z,29.13
2022-12-14T22:29:50.025Z,27.90
2022-12-14T22:32:18.415Z,27.95
2022-12-14T22:34:48.376Z,27.30
2022-12-14T22:37:17.575Z,27.17
2022-12-14T22:39:47.774Z,28.33
2022-12-14T22:42:17.122Z,29.95
2022-12-14T22:44:45.570Z,31.30
2022-12-14T22:47:13.864Z,31.65
2022-12-14T22:49:42.408Z,31.60
2022-12-14T22:52:12.215Z,28.85
2022-12-14T22:54:41.047Z,27.98
2022-12-14T22:57:15.162Z,24.42
2022-12-14T22:59:50.203Z,22.60
2022-12-14T23:02:18.745Z,21.40
2022-12-14T23:04:50.167Z,23.70
2022-12-14T23:07:20.054Z,24.55
2022-12-14T23:10:05.915Z,24.52
2022-12-14T23:12:51.841Z,25.20
2022-12-14T23:15:37.603Z,23.42
2022-12-14T23:18:25.286Z,25.50
2022-12-14T23:21:11.875Z,26.15
2022-12-14T23:24:00.474Z,25.38
2022-12-14T23:26:46.443Z,25.95
2022-12-14T23:29:32.333Z,24.20
2022-12-14T23:32:18.503Z,24.17
2022-12-14T23:35:04.430Z,24.20
2022-12-14T23:37:50.358Z,23.98
2022-12-14T23:40:37.472Z,23.70
2022-12-14T23:43:30.867Z,23.70
2022-12-14T23:46:17.071Z,22.52
2022-12-14T23:49:03.111Z,22.27
2022-12-14T23:51:49.322Z,22.67
2022-12-14T23:54:35.610Z,23.88
2022-12-14T23:57:26.066Z,24.38
